sensor_id;sensor_type;location;lat;lon;timestamp;temperature;humidity
48936;DHT22;34745;52.276;10.528;2022-09-03T00:02:15;16.90;1.00
48936;DHT22;34745;52.276;10.528;2022-09-03T00:04:52;16.80;1.00
48936;DHT22;34745;52.276;10.528;2022-09-03T00:07:29;16.90;1.00
48936;DHT22;34745;52.276;10.528;2022-09-03T00:10:03;16.90;1.00
48936;DHT22;34745;52.276;10.528;2022-09-03T00:12:35;16.80;1.00
48936;DHT22;34745;52.276;10.528;2022-09-03T00:15:06;16.90;1.00
48936;DHT22;34745;52.276;10.528;2022-09-03T00:17:36;16.80;1.00
48936;DHT22;34745;52.276;10.528;2022-09-03T00:20:09;16.80;1.00
48936;DHT22;34745;52.276;10.528;2022-09-03T00:22:40;16.80;1.00
48936;DHT22;34745;52.276;10.528;2022-09-03T00:25:12;16.70;1.00
48936;DHT22;34745;52.276;10.528;2022-09-03T00:27:42;16.70;1.00
48936;DHT22;34745;52.276;10.528;2022-09-03T00:30:12;16.70;1.00
48936;DHT22;34745;52.276;10.528;2022-09-03T00:32:44;16.60;1.00
48936;DHT22;34745;52.276;10.528;2022-09-03T00:35:18;16.60;1.00
48936;DHT22;34745;52.276;10.528;2022-09-03T00:37:46;16.50;1.00
48936;DHT22;34745;52.276;10.528;2022-09-03T00:40:35;16.50;1.00
48936;DHT22;34745;52.276;10.528;2022-09-03T00:43:08;16.50;1.00
48936;DHT22;34745;52.276;10.528;2022-09-03T00:45:42;16.50;1.00
48936;DHT22;34745;52.276;10.528;2022-09-03T00:48:20;16.40;1.00
48936;DHT22;34745;52.276;10.528;2022-09-03T00:51:05;16.40;1.00
48936;DHT22;34745;52.276;10.528;2022-09-03T00:53:42;16.50;1.00
48936;DHT22;34745;52.276;10.528;2022-09-03T00:56:16;16.40;1.00
48936;DHT22;34745;52.276;10.528;2022-09-03T00:59:02;16.40;1.00
48936;DHT22;34745;52.276;10.528;2022-09-03T01:01:38;16.40;1.00
48936;DHT22;34745;52.276;10.528;2022-09-03T01:07:05;16.30;1.00
48936;DHT22;34745;52.276;10.528;2022-09-03T01:09:43;16.30;1.00
48936;DHT22;34745;52.276;10.528;2022-09-03T01:12:21;16.20;1.00
48936;DHT22;34745;52.276;10.528;2022-09-03T01:15:00;16.20;1.00
48936;DHT22;34745;52.276;10.528;2022-09-03T01:17:37;16.20;1.00
48936;DHT22;34745;52.276;10.528;2022-09-03T01:23:21;16.20;1.00
48936;DHT22;34745;52.276;10.528;2022-09-03T01:25:56;16.10;1.00
48936;DHT22;34745;52.276;10.528;2022-09-03T01:28:38;16.10;1.00
48936;DHT22;34745;52.276;10.528;2022-09-03T01:31:18;16.10;1.00
48936;DHT22;34745;52.276;10.528;2022-09-03T01:33:53;16.10;1.00
48936;DHT22;34745;52.276;10.528;2022-09-03T01:36:26;16.00;1.00
48936;DHT22;34745;52.276;10.528;2022-09-03T01:39:00;16.00;1.00
48936;DHT22;34745;52.276;10.528;2022-09-03T01:41:39;16.00;1.00
48936;DHT22;34745;52.276;10.528;2022-09-03T01:44:38;16.00;1.00
48936;DHT22;34745;52.276;10.528;2022-09-03T01:47:14;15.90;1.00
48936;DHT22;34745;52.276;10.528;2022-09-03T01:49:50;15.90;1.00
48936;DHT22;34745;52.276;10.528;2022-09-03T01:52:34;15.90;1.00
48936;DHT22;34745;52.276;10.528;2022-09-03T01:55:11;15.80;1.00
48936;DHT22;34745;52.276;10.528;2022-09-03T01:57:47;15.90;1.00
48936;DHT22;34745;52.276;10.528;2022-09-03T02:00:19;15.90;1.00
48936;DHT22;34745;52.276;10.528;2022-09-03T02:02:48;15.70;1.00
48936;DHT22;34745;52.276;10.528;2022-09-03T02:05:19;15.70;1.00
48936;DHT22;34745;52.276;10.528;2022-09-03T02:07:49;15.70;1.00
48936;DHT22;34745;52.276;10.528;2022-09-03T02:10:21;15.70;1.00
48936;DHT22;34745;52.276;10.528;2022-09-03T02:12:54;15.70;1.00
48936;DHT22;34745;52.276;10.528;2022-09-03T02:15:24;15.70;1.00
48936;DHT22;34745;52.276;10.528;2022-09-03T02:17:54;15.70;1.00
48936;DHT22;34745;52.276;10.528;2022-09-03T02:20:26;15.70;1.00
48936;DHT22;34745;52.276;10.528;2022-09-03T02:22:55;15.70;1.00
48936;DHT22;34745;52.276;10.528;2022-09-03T02:25:28;15.70;1.00
48936;DHT22;34745;52.276;10.528;2022-09-03T02:27:56;15.60;1.00
48936;DHT22;34745;52.276;10.528;2022-09-03T02:30:25;15.50;1.00
48936;DHT22;34745;52.276;10.528;2022-09-03T02:32:52;15.50;1.00
48936;DHT22;34745;52.276;10.528;2022-09-03T02:35:19;15.50;1.00
48936;DHT22;34745;52.276;10.528;2022-09-03T02:37:46;15.50;1.00
48936;DHT22;34745;52.276;10.528;2022-09-03T02:40:13;15.40;1.00
48936;DHT22;34745;52.276;10.528;2022-09-03T02:42:40;15.50;1.00
48936;DHT22;34745;52.276;10.528;2022-09-03T02:45:15;15.50;1.00
48936;DHT22;34745;52.276;10.528;2022-09-03T02:47:50;15.50;1.00
48936;DHT22;34745;52.276;10.528;2022-09-03T02:50:18;15.50;1.00
48936;DHT22;34745;52.276;10.528;2022-09-03T02:52:45;15.50;1.00
48936;DHT22;34745;52.276;10.528;2022-09-03T02:55:15;15.50;1.00
48936;DHT22;34745;52.276;10.528;2022-09-03T02:57:42;15.50;1.00
48936;DHT22;34745;52.276;10.528;2022-09-03T03:00:10;15.50;1.00
48936;DHT22;34745;52.276;10.528;2022-09-03T03:02:37;15.50;1.00
48936;DHT22;34745;52.276;10.528;2022-09-03T03:05:08;15.40;1.00
48936;DHT22;34745;52.276;10.528;2022-09-03T03:07:38;15.40;1.00
48936;DHT22;34745;52.276;10.528;2022-09-03T03:10:07;15.40;1.00
48936;DHT22;34745;52.276;10.528;2022-09-03T03:12:34;15.30;1.00
48936;DHT22;34745;52.276;10.528;2022-09-03T03:15:01;15.30;1.00
48936;DHT22;34745;52.276;10.528;2022-09-03T03:17:28;15.30;1.00
48936;DHT22;34745;52.276;10.528;2022-09-03T03:19:56;15.30;1.00
48936;DHT22;34745;52.276;10.528;2022-09-03T03:22:24;15.30;1.00
48936;DHT22;34745;52.276;10.528;2022-09-03T03:24:52;15.20;1.00
48936;DHT22;34745;52.276;10.528;2022-09-03T03:27:20;15.10;1.00
48936;DHT22;34745;52.276;10.528;2022-09-03T03:29:48;15.10;1.00
48936;DHT22;34745;52.276;10.528;2022-09-03T03:32:15;15.00;1.00
48936;DHT22;34745;52.276;10.528;2022-09-03T03:34:43;15.00;1.00
48936;DHT22;34745;52.276;10.528;2022-09-03T03:37:09;15.10;1.00
48936;DHT22;34745;52.276;10.528;2022-09-03T03:39:38;15.00;1.00
48936;DHT22;34745;52.276;10.528;2022-09-03T03:42:04;15.00;1.00
48936;DHT22;34745;52.276;10.528;2022-09-03T03:44:32;14.90;1.00
48936;DHT22;34745;52.276;10.528;2022-09-03T03:46:58;14.90;1.00
48936;DHT22;34745;52.276;10.528;2022-09-03T03:49:26;14.80;1.00
48936;DHT22;34745;52.276;10.528;2022-09-03T03:51:53;14.90;1.00
48936;DHT22;34745;52.276;10.528;2022-09-03T03:54:20;14.80;1.00
48936;DHT22;34745;52.276;10.528;2022-09-03T03:56:49;14.80;1.00
48936;DHT22;34745;52.276;10.528;2022-09-03T03:59:21;14.80;1.00
48936;DHT22;34745;52.276;10.528;2022-09-03T04:01:48;14.80;1.00
48936;DHT22;34745;52.276;10.528;2022-09-03T04:04:16;14.80;1.00
48936;DHT22;34745;52.276;10.528;2022-09-03T04:06:43;14.70;1.00
48936;DHT22;34745;52.276;10.528;2022-09-03T04:09:11;14.70;1.00
48936;DHT22;34745;52.276;10.528;2022-09-03T04:11:41;14.70;1.00
48936;DHT22;34745;52.276;10.528;2022-09-03T04:14:16;14.60;1.00
48936;DHT22;34745;52.276;10.528;2022-09-03T04:16:46;14.60;1.00
48936;DHT22;34745;52.276;10.528;2022-09-03T04:19:13;14.60;1.00
48936;DHT22;34745;52.276;10.528;2022-09-03T04:21:40;14.60;1.00
48936;DHT22;34745;52.276;10.528;2022-09-03T04:24:07;14.60;1.00
48936;DHT22;34745;52.276;10.528;2022-09-03T04:26:35;14.50;1.00
48936;DHT22;34745;52.276;10.528;2022-09-03T04:29:04;14.50;1.00
48936;DHT22;34745;52.276;10.528;2022-09-03T04:31:34;14.50;1.00
48936;DHT22;34745;52.276;10.528;2022-09-03T04:34:03;14.40;1.00
48936;DHT22;34745;52.276;10.528;2022-09-03T04:36:32;14.40;1.00
48936;DHT22;34745;52.276;10.528;2022-09-03T04:39:01;14.40;1.00
48936;DHT22;34745;52.276;10.528;2022-09-03T04:41:29;14.40;1.00
48936;DHT22;34745;52.276;10.528;2022-09-03T04:43:58;14.30;1.00
48936;DHT22;34745;52.276;10.528;2022-09-03T04:46:27;14.40;1.00
48936;DHT22;34745;52.276;10.528;2022-09-03T04:48:58;14.20;1.00
48936;DHT22;34745;52.276;10.528;2022-09-03T04:51:27;14.20;1.00
48936;DHT22;34745;52.276;10.528;2022-09-03T04:53:56;14.10;1.00
48936;DHT22;34745;52.276;10.528;2022-09-03T04:56:25;14.10;1.00
48936;DHT22;34745;52.276;10.528;2022-09-03T04:58:55;14.10;1.00
48936;DHT22;34745;52.276;10.528;2022-09-03T05:01:24;14.10;1.00
48936;DHT22;34745;52.276;10.528;2022-09-03T05:03:53;14.20;1.00
48936;DHT22;34745;52.276;10.528;2022-09-03T05:06:22;14.30;1.00
48936;DHT22;34745;52.276;10.528;2022-09-03T05:08:51;14.30;1.00
48936;DHT22;34745;52.276;10.528;2022-09-03T05:11:19;14.30;1.00
48936;DHT22;34745;52.276;10.528;2022-09-03T05:13:48;14.30;1.00
48936;DHT22;34745;52.276;10.528;2022-09-03T05:16:16;14.30;1.00
48936;DHT22;34745;52.276;10.528;2022-09-03T05:18:46;14.40;1.00
48936;DHT22;34745;52.276;10.528;2022-09-03T05:21:16;14.40;1.00
48936;DHT22;34745;52.276;10.528;2022-09-03T05:23:46;14.40;1.00
48936;DHT22;34745;52.276;10.528;2022-09-03T05:26:16;14.40;1.00
48936;DHT22;34745;52.276;10.528;2022-09-03T05:28:44;14.50;1.00
48936;DHT22;34745;52.276;10.528;2022-09-03T05:31:12;14.50;1.00
48936;DHT22;34745;52.276;10.528;2022-09-03T05:33:42;14.50;1.00
48936;DHT22;34745;52.276;10.528;2022-09-03T05:36:12;14.60;1.00
48936;DHT22;34745;52.276;10.528;2022-09-03T05:38:39;14.70;1.00
48936;DHT22;34745;52.276;10.528;2022-09-03T05:41:09;14.80;1.00
48936;DHT22;34745;52.276;10.528;2022-09-03T05:43:37;14.80;1.00
48936;DHT22;34745;52.276;10.528;2022-09-03T05:46:05;14.90;1.00
48936;DHT22;34745;52.276;10.528;2022-09-03T05:48:34;14.90;1.00
48936;DHT22;34745;52.276;10.528;2022-09-03T05:51:03;15.00;1.00
48936;DHT22;34745;52.276;10.528;2022-09-03T05:53:33;15.10;1.00
48936;DHT22;34745;52.276;10.528;2022-09-03T05:56:02;15.10;1.00
48936;DHT22;34745;52.276;10.528;2022-09-03T05:58:31;15.20;1.00
48936;DHT22;34745;52.276;10.528;2022-09-03T06:00:58;15.30;1.00
48936;DHT22;34745;52.276;10.528;2022-09-03T06:03:25;15.30;1.00
48936;DHT22;34745;52.276;10.528;2022-09-03T06:05:53;15.30;1.00
48936;DHT22;34745;52.276;10.528;2022-09-03T06:08:21;15.40;1.00
48936;DHT22;34745;52.276;10.528;2022-09-03T06:10:48;15.50;1.00
48936;DHT22;34745;52.276;10.528;2022-09-03T06:13:15;15.60;1.00
48936;DHT22;34745;52.276;10.528;2022-09-03T06:15:43;15.70;1.00
48936;DHT22;34745;52.276;10.528;2022-09-03T06:18:10;15.80;1.00
48936;DHT22;34745;52.276;10.528;2022-09-03T06:20:37;15.90;1.00
48936;DHT22;34745;52.276;10.528;2022-09-03T06:23:05;16.00;1.00
48936;DHT22;34745;52.276;10.528;2022-09-03T06:25:31;16.10;1.00
48936;DHT22;34745;52.276;10.528;2022-09-03T06:27:59;16.20;1.00
48936;DHT22;34745;52.276;10.528;2022-09-03T06:30:27;16.20;1.00
48936;DHT22;34745;52.276;10.528;2022-09-03T06:32:56;16.20;1.00
48936;DHT22;34745;52.276;10.528;2022-09-03T06:35:24;16.20;1.00
48936;DHT22;34745;52.276;10.528;2022-09-03T06:37:52;16.20;1.00
48936;DHT22;34745;52.276;10.528;2022-09-03T06:40:19;16.30;1.00
48936;DHT22;34745;52.276;10.528;2022-09-03T06:42:55;16.30;1.00
48936;DHT22;34745;52.276;10.528;2022-09-03T06:45:24;16.30;1.00
48936;DHT22;34745;52.276;10.528;2022-09-03T06:47:52;16.40;1.00
48936;DHT22;34745;52.276;10.528;2022-09-03T06:50:21;16.40;1.00
48936;DHT22;34745;52.276;10.528;2022-09-03T06:52:51;16.50;1.00
48936;DHT22;34745;52.276;10.528;2022-09-03T06:55:20;16.50;1.00
48936;DHT22;34745;52.276;10.528;2022-09-03T06:57:47;16.60;1.00
48936;DHT22;34745;52.276;10.528;2022-09-03T07:00:18;16.70;1.00
48936;DHT22;34745;52.276;10.528;2022-09-03T07:02:47;16.80;1.00
48936;DHT22;34745;52.276;10.528;2022-09-03T07:05:14;16.90;1.00
48936;DHT22;34745;52.276;10.528;2022-09-03T07:07:43;17.00;1.00
48936;DHT22;34745;52.276;10.528;2022-09-03T07:10:11;17.10;1.00
48936;DHT22;34745;52.276;10.528;2022-09-03T07:12:42;17.20;1.00
48936;DHT22;34745;52.276;10.528;2022-09-03T07:15:09;17.30;1.00
48936;DHT22;34745;52.276;10.528;2022-09-03T07:17:38;17.40;1.00
48936;DHT22;34745;52.276;10.528;2022-09-03T07:20:05;17.40;1.00
48936;DHT22;34745;52.276;10.528;2022-09-03T07:22:34;17.50;1.00
48936;DHT22;34745;52.276;10.528;2022-09-03T07:25:03;17.60;1.00
48936;DHT22;34745;52.276;10.528;2022-09-03T07:27:30;17.70;1.00
48936;DHT22;34745;52.276;10.528;2022-09-03T07:29:57;17.70;1.00
48936;DHT22;34745;52.276;10.528;2022-09-03T07:32:24;17.80;1.00
48936;DHT22;34745;52.276;10.528;2022-09-03T07:34:51;17.90;1.00
48936;DHT22;34745;52.276;10.528;2022-09-03T07:37:18;17.90;1.00
48936;DHT22;34745;52.276;10.528;2022-09-03T07:39:45;18.00;1.00
48936;DHT22;34745;52.276;10.528;2022-09-03T07:42:13;18.00;1.00
48936;DHT22;34745;52.276;10.528;2022-09-03T07:44:40;18.10;1.00
48936;DHT22;34745;52.276;10.528;2022-09-03T07:47:07;18.20;1.00
48936;DHT22;34745;52.276;10.528;2022-09-03T07:49:34;18.20;1.00
48936;DHT22;34745;52.276;10.528;2022-09-03T07:52:02;18.30;1.00
48936;DHT22;34745;52.276;10.528;2022-09-03T07:54:29;18.30;1.00
48936;DHT22;34745;52.276;10.528;2022-09-03T07:56:57;18.40;1.00
48936;DHT22;34745;52.276;10.528;2022-09-03T07:59:26;18.40;1.00
48936;DHT22;34745;52.276;10.528;2022-09-03T08:01:53;18.40;1.00
48936;DHT22;34745;52.276;10.528;2022-09-03T08:04:20;18.50;1.00
48936;DHT22;34745;52.276;10.528;2022-09-03T08:06:47;18.60;1.00
48936;DHT22;34745;52.276;10.528;2022-09-03T08:09:15;18.70;1.00
48936;DHT22;34745;52.276;10.528;2022-09-03T08:11:42;18.70;1.00
48936;DHT22;34745;52.276;10.528;2022-09-03T08:14:10;18.80;1.00
48936;DHT22;34745;52.276;10.528;2022-09-03T08:16:41;18.90;1.00
48936;DHT22;34745;52.276;10.528;2022-09-03T08:19:09;18.90;1.00
48936;DHT22;34745;52.276;10.528;2022-09-03T08:21:38;19.00;1.00
48936;DHT22;34745;52.276;10.528;2022-09-03T08:24:07;19.00;1.00
48936;DHT22;34745;52.276;10.528;2022-09-03T08:26:36;19.10;1.00
48936;DHT22;34745;52.276;10.528;2022-09-03T08:29:04;19.20;1.00
48936;DHT22;34745;52.276;10.528;2022-09-03T08:31:32;19.30;1.00
48936;DHT22;34745;52.276;10.528;2022-09-03T08:34:02;19.40;1.00
48936;DHT22;34745;52.276;10.528;2022-09-03T08:36:34;19.50;1.00
48936;DHT22;34745;52.276;10.528;2022-09-03T08:39:05;19.50;1.00
48936;DHT22;34745;52.276;10.528;2022-09-03T08:41:47;19.70;1.00
48936;DHT22;34745;52.276;10.528;2022-09-03T08:44:19;19.90;1.00
48936;DHT22;34745;52.276;10.528;2022-09-03T08:46:52;20.10;1.00
48936;DHT22;34745;52.276;10.528;2022-09-03T08:49:24;20.30;99.90
48936;DHT22;34745;52.276;10.528;2022-09-03T08:51:54;20.20;99.90
48936;DHT22;34745;52.276;10.528;2022-09-03T08:54:25;20.20;99.90
48936;DHT22;34745;52.276;10.528;2022-09-03T08:56:58;20.10;99.90
48936;DHT22;34745;52.276;10.528;2022-09-03T08:59:27;20.20;99.90
48936;DHT22;34745;52.276;10.528;2022-09-03T09:02:08;20.30;99.90
48936;DHT22;34745;52.276;10.528;2022-09-03T09:04:52;20.30;99.90
48936;DHT22;34745;52.276;10.528;2022-09-03T09:07:28;20.40;99.90
48936;DHT22;34745;52.276;10.528;2022-09-03T09:10:04;20.40;99.90
48936;DHT22;34745;52.276;10.528;2022-09-03T09:12:40;20.40;99.90
48936;DHT22;34745;52.276;10.528;2022-09-03T09:15:18;20.50;99.90
48936;DHT22;34745;52.276;10.528;2022-09-03T09:18:02;20.50;99.90
48936;DHT22;34745;52.276;10.528;2022-09-03T09:20:38;20.60;99.90
48936;DHT22;34745;52.276;10.528;2022-09-03T09:23:13;20.60;99.90
48936;DHT22;34745;52.276;10.528;2022-09-03T09:25:46;20.60;99.90
48936;DHT22;34745;52.276;10.528;2022-09-03T09:28:17;20.70;99.90
48936;DHT22;34745;52.276;10.528;2022-09-03T09:30:46;20.80;99.90
48936;DHT22;34745;52.276;10.528;2022-09-03T09:33:14;20.80;99.90
48936;DHT22;34745;52.276;10.528;2022-09-03T09:35:42;20.80;99.90
48936;DHT22;34745;52.276;10.528;2022-09-03T09:38:11;20.90;99.90
48936;DHT22;34745;52.276;10.528;2022-09-03T09:40:40;21.00;99.90
48936;DHT22;34745;52.276;10.528;2022-09-03T09:43:12;21.10;99.90
48936;DHT22;34745;52.276;10.528;2022-09-03T09:45:43;21.10;99.90
48936;DHT22;34745;52.276;10.528;2022-09-03T09:48:18;21.30;99.90
48936;DHT22;34745;52.276;10.528;2022-09-03T09:50:48;21.20;99.90
48936;DHT22;34745;52.276;10.528;2022-09-03T09:53:17;21.20;99.90
48936;DHT22;34745;52.276;10.528;2022-09-03T09:55:52;21.20;99.90
48936;DHT22;34745;52.276;10.528;2022-09-03T09:58:22;21.20;99.90
48936;DHT22;34745;52.276;10.528;2022-09-03T10:00:57;20.90;99.90
48936;DHT22;34745;52.276;10.528;2022-09-03T10:03:26;20.80;99.90
48936;DHT22;34745;52.276;10.528;2022-09-03T10:06:04;20.60;99.90
48936;DHT22;34745;52.276;10.528;2022-09-03T10:08:52;20.50;99.90
48936;DHT22;34745;52.276;10.528;2022-09-03T10:11:21;20.50;99.90
48936;DHT22;34745;52.276;10.528;2022-09-03T10:13:52;20.60;99.90
48936;DHT22;34745;52.276;10.528;2022-09-03T10:16:26;20.70;99.90
48936;DHT22;34745;52.276;10.528;2022-09-03T10:19:01;20.80;99.90
48936;DHT22;34745;52.276;10.528;2022-09-03T10:21:35;20.90;99.90
48936;DHT22;34745;52.276;10.528;2022-09-03T10:24:17;20.90;99.90
48936;DHT22;34745;52.276;10.528;2022-09-03T10:26:46;21.00;99.90
48936;DHT22;34745;52.276;10.528;2022-09-03T10:29:18;21.00;99.90
48936;DHT22;34745;52.276;10.528;2022-09-03T10:31:56;20.90;99.90
48936;DHT22;34745;52.276;10.528;2022-09-03T10:34:33;21.10;99.90
48936;DHT22;34745;52.276;10.528;2022-09-03T10:37:15;21.10;99.90
48936;DHT22;34745;52.276;10.528;2022-09-03T10:39:55;21.10;99.90
48936;DHT22;34745;52.276;10.528;2022-09-03T10:42:36;21.20;99.90
48936;DHT22;34745;52.276;10.528;2022-09-03T10:45:15;21.40;99.90
48936;DHT22;34745;52.276;10.528;2022-09-03T10:48:05;21.50;99.90
48936;DHT22;34745;52.276;10.528;2022-09-03T10:50:43;21.60;99.90
48936;DHT22;34745;52.276;10.528;2022-09-03T10:53:23;21.60;99.90
48936;DHT22;34745;52.276;10.528;2022-09-03T10:55:57;21.80;99.90
48936;DHT22;34745;52.276;10.528;2022-09-03T10:58:38;21.90;99.90
48936;DHT22;34745;52.276;10.528;2022-09-03T11:01:15;22.10;99.90
48936;DHT22;34745;52.276;10.528;2022-09-03T11:03:52;22.00;99.90
48936;DHT22;34745;52.276;10.528;2022-09-03T11:06:25;22.10;99.90
48936;DHT22;34745;52.276;10.528;2022-09-03T11:08:58;22.10;99.90
48936;DHT22;34745;52.276;10.528;2022-09-03T11:11:35;22.10;99.90
48936;DHT22;34745;52.276;10.528;2022-09-03T11:14:06;22.20;99.90
48936;DHT22;34745;52.276;10.528;2022-09-03T11:16:37;22.30;99.90
48936;DHT22;34745;52.276;10.528;2022-09-03T11:19:08;22.30;99.90
48936;DHT22;34745;52.276;10.528;2022-09-03T11:21:37;22.40;99.90
48936;DHT22;34745;52.276;10.528;2022-09-03T11:24:12;22.40;99.90
48936;DHT22;34745;52.276;10.528;2022-09-03T11:26:42;22.50;99.90
48936;DHT22;34745;52.276;10.528;2022-09-03T11:29:14;22.40;99.90
48936;DHT22;34745;52.276;10.528;2022-09-03T11:31:56;22.60;99.90
48936;DHT22;34745;52.276;10.528;2022-09-03T11:34:28;22.70;99.90
48936;DHT22;34745;52.276;10.528;2022-09-03T11:37:14;22.80;99.90
48936;DHT22;34745;52.276;10.528;2022-09-03T11:39:51;22.90;99.90
48936;DHT22;34745;52.276;10.528;2022-09-03T11:42:34;23.10;99.90
48936;DHT22;34745;52.276;10.528;2022-09-03T11:45:19;23.30;99.90
48936;DHT22;34745;52.276;10.528;2022-09-03T11:47:48;23.50;99.90
48936;DHT22;34745;52.276;10.528;2022-09-03T11:50:20;23.70;99.90
48936;DHT22;34745;52.276;10.528;2022-09-03T11:52:49;23.80;99.90
48936;DHT22;34745;52.276;10.528;2022-09-03T11:55:27;24.00;99.90
48936;DHT22;34745;52.276;10.528;2022-09-03T11:58:13;24.00;99.90
48936;DHT22;34745;52.276;10.528;2022-09-03T12:00:47;23.80;99.90
48936;DHT22;34745;52.276;10.528;2022-09-03T12:03:16;23.60;99.90
48936;DHT22;34745;52.276;10.528;2022-09-03T12:05:50;23.60;99.90
48936;DHT22;34745;52.276;10.528;2022-09-03T12:08:45;23.90;99.90
48936;DHT22;34745;52.276;10.528;2022-09-03T12:11:28;24.10;99.90
48936;DHT22;34745;52.276;10.528;2022-09-03T12:14:05;24.50;99.90
48936;DHT22;34745;52.276;10.528;2022-09-03T12:16:56;24.80;99.90
48936;DHT22;34745;52.276;10.528;2022-09-03T12:19:31;24.90;99.90
48936;DHT22;34745;52.276;10.528;2022-09-03T12:22:01;24.90;99.90
48936;DHT22;34745;52.276;10.528;2022-09-03T12:24:31;24.70;99.90
48936;DHT22;34745;52.276;10.528;2022-09-03T12:27:07;24.70;99.90
48936;DHT22;34745;52.276;10.528;2022-09-03T12:29:35;24.80;99.90
48936;DHT22;34745;52.276;10.528;2022-09-03T12:32:08;25.10;99.90
48936;DHT22;34745;52.276;10.528;2022-09-03T12:34:37;25.30;99.90
48936;DHT22;34745;52.276;10.528;2022-09-03T12:37:17;25.50;99.90
48936;DHT22;34745;52.276;10.528;2022-09-03T12:39:50;25.80;99.90
48936;DHT22;34745;52.276;10.528;2022-09-03T12:42:35;26.00;99.90
48936;DHT22;34745;52.276;10.528;2022-09-03T12:45:07;26.20;99.90
48936;DHT22;34745;52.276;10.528;2022-09-03T12:47:42;26.40;99.90
48936;DHT22;34745;52.276;10.528;2022-09-03T12:50:14;26.40;99.90
48936;DHT22;34745;52.276;10.528;2022-09-03T12:52:45;26.60;99.90
48936;DHT22;34745;52.276;10.528;2022-09-03T12:55:25;26.60;99.90
48936;DHT22;34745;52.276;10.528;2022-09-03T12:57:59;26.80;99.90
48936;DHT22;34745;52.276;10.528;2022-09-03T13:00:29;27.00;99.90
48936;DHT22;34745;52.276;10.528;2022-09-03T13:03:01;27.10;99.90
48936;DHT22;34745;52.276;10.528;2022-09-03T13:05:32;27.40;99.90
48936;DHT22;34745;52.276;10.528;2022-09-03T13:08:01;27.50;99.90
48936;DHT22;34745;52.276;10.528;2022-09-03T13:10:33;27.60;99.90
48936;DHT22;34745;52.276;10.528;2022-09-03T13:13:18;27.70;99.90
48936;DHT22;34745;52.276;10.528;2022-09-03T13:16:05;27.80;99.90
48936;DHT22;34745;52.276;10.528;2022-09-03T13:18:42;27.70;99.90
48936;DHT22;34745;52.276;10.528;2022-09-03T13:21:15;27.60;99.90
48936;DHT22;34745;52.276;10.528;2022-09-03T13:23:56;27.40;99.90
48936;DHT22;34745;52.276;10.528;2022-09-03T13:26:33;27.70;99.90
48936;DHT22;34745;52.276;10.528;2022-09-03T13:29:18;27.60;99.90
48936;DHT22;34745;52.276;10.528;2022-09-03T13:31:53;27.70;99.90
48936;DHT22;34745;52.276;10.528;2022-09-03T13:34:24;27.70;99.90
48936;DHT22;34745;52.276;10.528;2022-09-03T13:37:01;27.90;99.90
48936;DHT22;34745;52.276;10.528;2022-09-03T13:39:32;28.00;99.90
48936;DHT22;34745;52.276;10.528;2022-09-03T13:42:09;28.00;99.90
48936;DHT22;34745;52.276;10.528;2022-09-03T13:44:44;27.90;99.90
48936;DHT22;34745;52.276;10.528;2022-09-03T13:47:24;27.90;99.90
48936;DHT22;34745;52.276;10.528;2022-09-03T13:49:58;28.20;99.90
48936;DHT22;34745;52.276;10.528;2022-09-03T13:52:49;28.30;99.90
48936;DHT22;34745;52.276;10.528;2022-09-03T13:55:21;28.10;99.90
48936;DHT22;34745;52.276;10.528;2022-09-03T13:57:53;28.00;99.90
48936;DHT22;34745;52.276;10.528;2022-09-03T14:00:32;28.10;99.90
48936;DHT22;34745;52.276;10.528;2022-09-03T14:03:07;27.60;99.90
48936;DHT22;34745;52.276;10.528;2022-09-03T14:05:49;28.00;99.90
48936;DHT22;34745;52.276;10.528;2022-09-03T14:08:24;28.30;99.90
48936;DHT22;34745;52.276;10.528;2022-09-03T14:10:59;28.60;99.90
48936;DHT22;34745;52.276;10.528;2022-09-03T14:13:37;28.60;99.90
48936;DHT22;34745;52.276;10.528;2022-09-03T14:16:13;28.40;99.90
48936;DHT22;34745;52.276;10.528;2022-09-03T14:18:48;28.10;99.90
48936;DHT22;34745;52.276;10.528;2022-09-03T14:21:21;28.20;99.90
48936;DHT22;34745;52.276;10.528;2022-09-03T14:23:58;28.00;99.90
48936;DHT22;34745;52.276;10.528;2022-09-03T14:26:29;28.10;99.90
48936;DHT22;34745;52.276;10.528;2022-09-03T14:29:13;28.30;99.90
48936;DHT22;34745;52.276;10.528;2022-09-03T14:34:51;28.40;99.90
48936;DHT22;34745;52.276;10.528;2022-09-03T14:37:38;28.50;99.90
48936;DHT22;34745;52.276;10.528;2022-09-03T14:40:13;28.50;99.90
48936;DHT22;34745;52.276;10.528;2022-09-03T14:42:55;28.60;99.90
48936;DHT22;34745;52.276;10.528;2022-09-03T14:45:51;28.50;99.90
48936;DHT22;34745;52.276;10.528;2022-09-03T14:48:35;28.20;99.90
48936;DHT22;34745;52.276;10.528;2022-09-03T14:51:22;28.20;99.90
48936;DHT22;34745;52.276;10.528;2022-09-03T14:54:10;28.10;99.90
48936;DHT22;34745;52.276;10.528;2022-09-03T14:56:49;28.00;99.90
48936;DHT22;34745;52.276;10.528;2022-09-03T14:59:37;28.00;99.90
48936;DHT22;34745;52.276;10.528;2022-09-03T15:02:21;28.40;99.90
48936;DHT22;34745;52.276;10.528;2022-09-03T15:07:48;28.30;99.90
48936;DHT22;34745;52.276;10.528;2022-09-03T15:10:23;28.20;99.90
48936;DHT22;34745;52.276;10.528;2022-09-03T15:12:54;28.60;99.90
48936;DHT22;34745;52.276;10.528;2022-09-03T15:15:28;28.60;99.90
48936;DHT22;34745;52.276;10.528;2022-09-03T15:18:09;28.50;99.90
48936;DHT22;34745;52.276;10.528;2022-09-03T15:20:48;28.50;99.90
48936;DHT22;34745;52.276;10.528;2022-09-03T15:23:23;28.40;99.90
48936;DHT22;34745;52.276;10.528;2022-09-03T15:26:18;28.20;99.90
48936;DHT22;34745;52.276;10.528;2022-09-03T15:29:02;28.20;99.90
48936;DHT22;34745;52.276;10.528;2022-09-03T15:31:43;27.80;99.90
48936;DHT22;34745;52.276;10.528;2022-09-03T15:34:26;27.90;99.90
48936;DHT22;34745;52.276;10.528;2022-09-03T15:37:07;28.10;99.90
48936;DHT22;34745;52.276;10.528;2022-09-03T15:39:37;28.30;99.90
48936;DHT22;34745;52.276;10.528;2022-09-03T15:42:09;28.20;99.90
48936;DHT22;34745;52.276;10.528;2022-09-03T15:44:44;27.90;99.90
48936;DHT22;34745;52.276;10.528;2022-09-03T15:47:30;28.00;99.90
48936;DHT22;34745;52.276;10.528;2022-09-03T15:50:28;28.10;99.90
48936;DHT22;34745;52.276;10.528;2022-09-03T15:53:00;28.20;99.90
48936;DHT22;34745;52.276;10.528;2022-09-03T15:55:33;28.10;99.90
48936;DHT22;34745;52.276;10.528;2022-09-03T15:58:09;27.70;99.90
48936;DHT22;34745;52.276;10.528;2022-09-03T16:00:49;27.60;99.90
48936;DHT22;34745;52.276;10.528;2022-09-03T16:03:22;27.60;99.90
48936;DHT22;34745;52.276;10.528;2022-09-03T16:06:01;27.60;99.90
48936;DHT22;34745;52.276;10.528;2022-09-03T16:08:39;27.10;99.90
48936;DHT22;34745;52.276;10.528;2022-09-03T16:11:11;26.80;99.90
48936;DHT22;34745;52.276;10.528;2022-09-03T16:13:57;26.60;99.90